createdAt,value
2022-09-06T00:02:03.220Z,100.00
2022-09-06T00:05:10.940Z,100.00
2022-09-06T00:08:17.203Z,100.00
2022-09-06T00:11:22.888Z,100.00
2022-09-06T00:14:28.736Z,100.00
2022-09-06T00:17:34.748Z,100.00
2022-09-06T00:20:42.062Z,100.00
2022-09-06T00:23:48.640Z,100.00
2022-09-06T00:26:54.523Z,100.00
2022-09-06T00:30:00.783Z,100.00
2022-09-06T00:33:06.570Z,100.00
2022-09-06T00:36:13.488Z,100.00
2022-09-06T00:39:18.819Z,100.00
2022-09-06T00:42:24.127Z,100.00
2022-09-06T00:45:30.957Z,100.00
2022-09-06T00:48:39.550Z,100.00
2022-09-06T00:51:45.077Z,100.00
2022-09-06T00:54:52.005Z,100.00
2022-09-06T00:57:58.196Z,100.00
2022-09-06T01:01:03.359Z,100.00
2022-09-06T01:04:09.573Z,100.00
2022-09-06T01:07:31.877Z,100.00
2022-09-06T01:11:13.737Z,100.00
2022-09-06T01:14:53.252Z,100.00
2022-09-06T01:18:13.851Z,100.00
2022-09-06T01:21:41.634Z,100.00
2022-09-06T01:25:28.803Z,100.00
2022-09-06T01:28:34.779Z,100.00
2022-09-06T01:32:05.269Z,100.00
2022-09-06T01:35:16.072Z,100.00
2022-09-06T01:38:22.014Z,100.00
2022-09-06T01:41:27.856Z,100.00
2022-09-06T01:44:34.970Z,100.00
2022-09-06T01:48:00.704Z,100.00
2022-09-06T01:51:27.174Z,100.00
2022-09-06T01:54:32.506Z,100.00
2022-09-06T01:57:59.803Z,100.00
2022-09-06T02:01:23.023Z,100.00
2022-09-06T02:04:54.449Z,100.00
2022-09-06T02:08:24.245Z,100.00
2022-09-06T02:11:32.424Z,100.00
2022-09-06T02:14:47.172Z,100.00
2022-09-06T02:18:06.579Z,100.00
2022-09-06T02:21:15.785Z,100.00
2022-09-06T02:24:29.164Z,100.00
2022-09-06T02:27:35.001Z,100.00
2022-09-06T02:30:49.654Z,100.00
2022-09-06T02:33:56.933Z,100.00
2022-09-06T02:37:02.488Z,100.00
2022-09-06T02:40:09.220Z,100.00
2022-09-06T02:43:15.044Z,100.00
2022-09-06T02:46:20.690Z,100.00
2022-09-06T02:49:26.327Z,100.00
2022-09-06T02:52:31.894Z,100.00
2022-09-06T02:55:38.836Z,100.00
2022-09-06T02:58:44.827Z,100.00
2022-09-06T03:01:50.252Z,100.00
2022-09-06T03:04:55.742Z,100.00
2022-09-06T03:08:01.949Z,100.00
2022-09-06T03:11:07.798Z,100.00
2022-09-06T03:14:13.160Z,100.00
2022-09-06T03:17:21.870Z,100.00
2022-09-06T03:20:27.669Z,100.00
2022-09-06T03:23:32.939Z,100.00
2022-09-06T03:31:41.556Z,100.00
2022-09-06T03:34:46.607Z,100.00
2022-09-06T03:37:52.495Z,100.00
2022-09-06T03:40:58.433Z,100.00
2022-09-06T03:49:02.205Z,100.00
2022-09-06T03:52:08.049Z,100.00
2022-09-06T03:55:13.661Z,100.00
2022-09-06T03:58:22.702Z,100.00
2022-09-06T04:01:28.705Z,100.00
2022-09-06T04:04:34.228Z,100.00
2022-09-06T04:07:39.829Z,100.00
2022-09-06T04:10:45.552Z,100.00
2022-09-06T04:13:50.765Z,100.00
2022-09-06T04:16:56.220Z,100.00
2022-09-06T04:20:01.963Z,100.00
2022-09-06T04:23:07.897Z,100.00
2022-09-06T04:26:13.536Z,100.00
2022-09-06T04:29:18.814Z,100.00
2022-09-06T04:32:24.668Z,100.00
2022-09-06T04:35:30.029Z,100.00
2022-09-06T04:38:38.342Z,100.00
2022-09-06T04:41:43.453Z,100.00
2022-09-06T04:44:48.645Z,100.00
2022-09-06T04:47:53.775Z,100.00
2022-09-06T04:50:59.400Z,100.00
2022-09-06T04:54:05.224Z,100.00
2022-09-06T04:57:10.662Z,100.00
2022-09-06T05:00:16.164Z,100.00
2022-09-06T05:03:21.956Z,100.00
2022-09-06T05:06:26.970Z,100.00
2022-09-06T05:09:34.149Z,100.00
2022-09-06T05:12:43.620Z,100.00
2022-09-06T05:15:49.644Z,100.00
2022-09-06T05:18:54.816Z,100.00
2022-09-06T05:22:00.126Z,100.00
2022-09-06T05:25:06.233Z,100.00
2022-09-06T05:28:11.835Z,100.00
2022-09-06T05:31:29.833Z,100.00
2022-09-06T05:34:35.112Z,100.00
2022-09-06T05:37:40.332Z,100.00
2022-09-06T05:40:45.953Z,100.00
2022-09-06T05:43:51.223Z,100.00
2022-09-06T05:46:56.674Z,100.00
2022-09-06T05:50:03.779Z,100.00
2022-09-06T05:53:09.413Z,100.00
2022-09-06T05:56:16.467Z,100.00
2022-09-06T05:59:21.380Z,100.00
2022-09-06T06:02:26.730Z,100.00
2022-09-06T06:05:32.081Z,100.00
2022-09-06T06:08:37.553Z,100.00
2022-09-06T06:11:43.680Z,100.00
2022-09-06T06:14:49.422Z,100.00
2022-09-06T06:17:54.702Z,100.00
2022-09-06T06:21:21.836Z,100.00
2022-09-06T06:24:28.380Z,100.00
2022-09-06T06:27:35.669Z,100.00
2022-09-06T06:30:41.114Z,100.00
2022-09-06T06:33:46.750Z,100.00
2022-09-06T06:36:52.598Z,98.74
2022-09-06T06:39:59.455Z,98.63
2022-09-06T06:43:05.339Z,100.00
2022-09-06T06:46:16.093Z,99.82
2022-09-06T06:49:22.187Z,98.22
2022-09-06T06:52:27.612Z,98.26
2022-09-06T06:55:32.601Z,96.74
2022-09-06T06:58:38.026Z,97.15
2022-09-06T07:01:43.760Z,97.59
2022-09-06T07:04:49.886Z,97.18
2022-09-06T07:07:55.868Z,97.01
2022-09-06T07:11:01.587Z,96.61
2022-09-06T07:14:07.210Z,97.65
2022-09-06T07:17:12.581Z,97.19
2022-09-06T07:20:17.776Z,97.14
2022-09-06T07:30:17.159Z,97.48
2022-09-06T07:33:23.979Z,97.66
2022-09-06T07:36:29.252Z,97.67
2022-09-06T07:39:34.637Z,97.63
2022-09-06T07:42:40.196Z,97.81
2022-09-06T07:45:45.904Z,98.43
2022-09-06T07:48:51.581Z,98.86
2022-09-06T07:51:57.380Z,98.68
2022-09-06T07:55:03.143Z,97.73
2022-09-06T07:58:08.970Z,98.04
2022-09-06T08:01:19.715Z,98.69
2022-09-06T08:04:25.447Z,97.79
2022-09-06T08:10:44.048Z,97.82
2022-09-06T08:13:51.577Z,97.56
2022-09-06T08:16:57.242Z,97.15
2022-09-06T08:20:06.532Z,97.89
2022-09-06T08:23:12.511Z,97.90
2022-09-06T08:26:21.383Z,97.41
2022-09-06T08:29:27.772Z,97.36
2022-09-06T08:32:38.716Z,97.11
2022-09-06T08:35:44.619Z,95.01
2022-09-06T08:38:50.359Z,94.14
2022-09-06T08:42:06.281Z,93.75
2022-09-06T08:45:16.474Z,93.15
2022-09-06T08:48:24.228Z,94.58
2022-09-06T08:52:16.686Z,95.52
2022-09-06T08:56:08.475Z,95.08
2022-09-06T08:59:18.092Z,94.23
2022-09-06T09:02:23.779Z,93.36
2022-09-06T09:05:38.533Z,92.56
2022-09-06T09:09:06.342Z,92.22
2022-09-06T09:12:16.570Z,93.39
2022-09-06T09:15:23.135Z,91.17
2022-09-06T09:18:33.865Z,88.84
2022-09-06T09:21:40.867Z,89.82
2022-09-06T09:24:49.033Z,89.04
2022-09-06T09:27:59.527Z,87.78
2022-09-06T09:31:07.195Z,87.17
2022-09-06T09:34:15.668Z,86.96
2022-09-06T09:41:01.542Z,87.37
2022-09-06T09:44:12.333Z,86.21
2022-09-06T09:47:33.065Z,86.20
2022-09-06T09:50:38.441Z,85.91
2022-09-06T09:53:55.461Z,85.68
2022-09-06T09:57:01.371Z,84.41
2022-09-06T10:00:13.590Z,84.59
2022-09-06T10:03:25.047Z,85.56
2022-09-06T10:10:07.935Z,82.50
2022-09-06T10:13:22.705Z,83.04
2022-09-06T10:16:45.379Z,82.82
2022-09-06T10:19:51.253Z,82.39
2022-09-06T10:26:55.382Z,77.98
2022-09-06T10:30:08.724Z,77.42
2022-09-06T10:33:41.314Z,79.05
2022-09-06T10:37:10.661Z,76.90
2022-09-06T10:40:24.645Z,76.73
2022-09-06T10:43:39.145Z,77.22
2022-09-06T10:46:46.652Z,77.66
2022-09-06T10:49:59.508Z,75.99
2022-09-06T10:53:41.348Z,77.54
2022-09-06T10:57:04.755Z,76.99
2022-09-06T11:00:13.615Z,76.41
2022-09-06T11:07:07.499Z,75.90
2022-09-06T11:10:34.016Z,74.61
2022-09-06T11:13:39.660Z,75.43
2022-09-06T11:17:05.163Z,72.83
2022-09-06T11:20:32.096Z,71.61
2022-09-06T11:24:01.149Z,73.45
2022-09-06T11:27:13.000Z,73.63
2022-09-06T11:30:19.417Z,74.23
2022-09-06T11:33:40.212Z,71.88
2022-09-06T11:36:58.473Z,71.73
2022-09-06T11:40:28.336Z,71.18
2022-09-06T11:43:54.557Z,70.97
2022-09-06T11:47:01.562Z,70.77
2022-09-06T11:50:22.116Z,72.93
2022-09-06T11:53:32.326Z,72.32
2022-09-06T11:57:00.190Z,70.65
2022-09-06T12:00:09.195Z,70.94
2022-09-06T12:04:05.538Z,71.57
2022-09-06T12:07:14.622Z,70.30
2022-09-06T12:10:32.037Z,70.87
2022-09-06T12:13:48.969Z,69.92
2022-09-06T12:17:05.133Z,71.29
2022-09-06T12:20:11.803Z,71.45
2022-09-06T12:23:35.639Z,69.30
2022-09-06T12:27:07.354Z,69.61
2022-09-06T12:30:14.321Z,70.46
2022-09-06T12:33:39.240Z,69.59
2022-09-06T12:37:13.847Z,69.31
2022-09-06T12:40:21.041Z,68.64
2022-09-06T12:43:27.388Z,69.86
2022-09-06T12:46:33.350Z,68.43
2022-09-06T12:49:39.310Z,69.30
2022-09-06T12:52:51.785Z,67.75
2022-09-06T12:56:25.270Z,67.93
2022-09-06T12:59:31.605Z,67.87
2022-09-06T13:03:00.737Z,68.25
2022-09-06T13:06:07.585Z,68.37
2022-09-06T13:09:18.254Z,67.49
2022-09-06T13:12:33.069Z,66.53
2022-09-06T13:15:39.215Z,66.05
2022-09-06T13:18:44.738Z,64.55
2022-09-06T13:21:50.368Z,64.95
2022-09-06T13:24:56.952Z,63.68
2022-09-06T13:28:03.645Z,61.68
2022-09-06T13:31:18.206Z,63.11
2022-09-06T13:34:34.277Z,61.40
2022-09-06T13:37:41.655Z,61.09
2022-09-06T13:41:11.519Z,61.78
2022-09-06T13:44:21.690Z,61.89
2022-09-06T13:47:29.181Z,63.67
2022-09-06T13:50:34.440Z,63.63
2022-09-06T13:53:39.700Z,62.08
2022-09-06T13:56:45.091Z,63.54
2022-09-06T13:59:50.768Z,63.72
2022-09-06T14:02:56.769Z,65.49
2022-09-06T14:06:02.135Z,64.56
2022-09-06T14:09:08.693Z,62.53
2022-09-06T14:12:14.758Z,65.62
2022-09-06T14:15:20.485Z,64.60
2022-09-06T14:18:26.166Z,64.27
2022-09-06T14:21:32.525Z,64.55
2022-09-06T14:24:38.716Z,64.52
2022-09-06T14:27:44.518Z,64.56
2022-09-06T14:30:50.092Z,64.39
2022-09-06T14:33:57.373Z,65.62
2022-09-06T14:37:02.792Z,62.27
2022-09-06T14:40:08.940Z,63.38
2022-09-06T14:43:16.077Z,61.80
2022-09-06T14:46:23.857Z,62.70
2022-09-06T14:49:29.373Z,62.34
2022-09-06T14:52:36.072Z,63.00
2022-09-06T14:55:41.290Z,65.05
2022-09-06T14:58:47.088Z,62.53
2022-09-06T15:01:52.843Z,63.84
2022-09-06T15:04:58.664Z,61.93
2022-09-06T15:08:04.975Z,61.13
2022-09-06T15:11:12.618Z,62.34
2022-09-06T15:14:23.331Z,61.13
2022-09-06T15:17:29.189Z,61.48
2022-09-06T15:20:34.487Z,62.62
2022-09-06T15:23:40.721Z,62.26
2022-09-06T15:26:46.360Z,60.38
2022-09-06T15:29:51.794Z,61.36
2022-09-06T15:32:57.312Z,60.81
2022-09-06T15:36:09.194Z,62.53
2022-09-06T15:39:15.391Z,63.24
2022-09-06T15:42:20.840Z,63.15
2022-09-06T15:45:27.078Z,63.10
2022-09-06T15:48:43.564Z,63.80
2022-09-06T15:51:49.490Z,62.65
2022-09-06T15:55:13.639Z,63.60
2022-09-06T15:58:19.609Z,65.19
2022-09-06T16:01:27.249Z,63.99
2022-09-06T16:04:32.568Z,64.70
2022-09-06T16:07:41.258Z,62.75
2022-09-06T16:10:46.959Z,65.38
2022-09-06T16:13:52.050Z,64.42
2022-09-06T16:16:57.833Z,65.40
2022-09-06T16:20:05.222Z,63.16
2022-09-06T16:23:10.842Z,63.60
2022-09-06T16:26:20.740Z,65.51
2022-09-06T16:29:27.132Z,65.09
2022-09-06T16:32:32.760Z,64.78
2022-09-06T16:35:43.118Z,64.62
2022-09-06T16:38:49.188Z,64.68
2022-09-06T16:41:54.761Z,65.22
2022-09-06T16:45:00.251Z,65.75
2022-09-06T16:48:07.384Z,65.49
2022-09-06T16:51:18.702Z,66.04
2022-09-06T16:54:24.423Z,66.25
2022-09-06T16:57:30.130Z,66.29
2022-09-06T17:00:35.818Z,66.83
2022-09-06T17:03:41.298Z,67.65
2022-09-06T17:06:47.157Z,67.41
2022-09-06T17:09:52.777Z,67.30
2022-09-06T17:12:58.170Z,67.58
2022-09-06T17:16:22.641Z,69.19
2022-09-06T17:19:29.963Z,68.46
2022-09-06T17:22:35.486Z,68.53
2022-09-06T17:25:43.726Z,69.13
2022-09-06T17:28:50.469Z,69.28
2022-09-06T17:31:56.441Z,69.78
2022-09-06T17:35:03.343Z,69.59
2022-09-06T17:38:08.463Z,69.77
2022-09-06T17:41:25.932Z,70.38
2022-09-06T17:44:31.339Z,70.57
2022-09-06T17:47:37.064Z,72.56
2022-09-06T17:50:42.836Z,72.76
2022-09-06T17:53:48.533Z,72.99
2022-09-06T17:56:53.985Z,73.23
2022-09-06T17:59:59.442Z,74.12
2022-09-06T18:03:05.109Z,74.65
2022-09-06T18:06:13.798Z,76.63
2022-09-06T18:09:19.303Z,76.76
2022-09-06T18:12:25.321Z,77.25
2022-09-06T18:15:31.717Z,79.67
2022-09-06T18:18:37.671Z,77.38
2022-09-06T18:21:43.129Z,76.33
2022-09-06T18:24:49.143Z,76.87
2022-09-06T18:27:56.510Z,77.60
2022-09-06T18:31:06.335Z,78.12
2022-09-06T18:34:11.794Z,77.18
2022-09-06T18:37:17.085Z,79.14
2022-09-06T18:40:22.542Z,80.44
2022-09-06T18:43:31.580Z,79.95
2022-09-06T18:46:39.133Z,80.68
2022-09-06T18:49:45.482Z,81.03
2022-09-06T18:52:51.776Z,81.24
2022-09-06T18:55:58.041Z,80.83
2022-09-06T18:59:05.605Z,82.01
2022-09-06T19:02:11.768Z,82.61
2022-09-06T19:05:17.245Z,82.88
2022-09-06T19:08:23.176Z,82.10
2022-09-06T19:11:30.702Z,81.10
2022-09-06T19:14:36.206Z,81.56
2022-09-06T19:17:41.802Z,80.67
2022-09-06T19:21:05.539Z,79.89
2022-09-06T19:24:15.008Z,79.83
2022-09-06T19:27:20.381Z,79.84
2022-09-06T19:30:25.793Z,79.46
2022-09-06T19:33:36.197Z,80.98
2022-09-06T19:36:44.865Z,82.21
2022-09-06T19:39:50.989Z,82.70
2022-09-06T19:42:56.657Z,83.59
2022-09-06T19:46:04.762Z,84.72
2022-09-06T19:49:10.430Z,84.47
2022-09-06T19:52:15.843Z,86.46
2022-09-06T19:55:21.458Z,86.13
2022-09-06T19:58:27.892Z,86.74
2022-09-06T20:01:36.226Z,87.21
2022-09-06T20:04:42.046Z,88.14
2022-09-06T20:07:47.800Z,88.76
2022-09-06T20:10:59.774Z,88.24
2022-09-06T20:14:06.400Z,87.80
2022-09-06T20:17:32.995Z,89.15
2022-09-06T20:20:39.927Z,90.45
2022-09-06T20:23:52.961Z,91.83
2022-09-06T20:26:58.836Z,93.07
2022-09-06T20:30:04.861Z,94.63
2022-09-06T20:33:10.795Z,96.10
2022-09-06T20:36:16.768Z,97.83
2022-09-06T20:39:23.104Z,96.43
2022-09-06T20:42:28.554Z,96.94
2022-09-06T20:45:34.234Z,96.56
2022-09-06T20:48:44.200Z,96.95
2022-09-06T20:54:56.376Z,98.11
2022-09-06T20:58:02.330Z,98.65
2022-09-06T21:01:15.796Z,98.91
2022-09-06T21:04:21.991Z,98.76
2022-09-06T21:07:27.905Z,98.45
2022-09-06T21:10:34.740Z,99.38
2022-09-06T21:13:41.149Z,99.32
2022-09-06T21:16:46.264Z,99.96
2022-09-06T21:19:51.608Z,98.81
2022-09-06T21:22:57.861Z,99.70
2022-09-06T21:26:09.849Z,99.24
2022-09-06T21:29:15.092Z,99.38
2022-09-06T21:32:20.817Z,99.85
2022-09-06T21:35:25.897Z,100.00
2022-09-06T21:38:31.607Z,100.00
2022-09-06T21:41:40.169Z,100.00
2022-09-06T21:44:45.548Z,100.00
2022-09-06T21:47:52.536Z,99.95
2022-09-06T21:50:58.626Z,99.59
2022-09-06T21:54:05.294Z,100.00
2022-09-06T21:57:11.060Z,100.00
2022-09-06T22:00:16.777Z,100.00
2022-09-06T22:03:22.129Z,100.00
2022-09-06T22:06:29.822Z,100.00
2022-09-06T22:09:35.340Z,100.00
2022-09-06T22:12:42.954Z,100.00
2022-09-06T22:15:49.600Z,100.00
2022-09-06T22:18:55.315Z,100.00
2022-09-06T22:22:01.130Z,100.00
2022-09-06T22:25:07.353Z,100.00
2022-09-06T22:28:12.828Z,100.00
2022-09-06T22:31:18.550Z,100.00
2022-09-06T22:34:24.402Z,100.00
2022-09-06T22:37:29.989Z,100.00
2022-09-06T22:40:35.887Z,100.00
2022-09-06T22:43:41.131Z,100.00
2022-09-06T22:46:47.627Z,100.00
2022-09-06T22:49:52.942Z,100.00
2022-09-06T22:52:59.176Z,100.00
2022-09-06T22:56:05.028Z,100.00
2022-09-06T22:59:10.556Z,100.00
2022-09-06T23:02:16.219Z,100.00
2022-09-06T23:05:22.584Z,100.00
2022-09-06T23:08:27.759Z,100.00
2022-09-06T23:11:33.470Z,100.00
2022-09-06T23:14:38.579Z,100.00
2022-09-06T23:17:43.991Z,100.00
2022-09-06T23:20:49.661Z,100.00
2022-09-06T23:23:57.598Z,100.00
2022-09-06T23:27:05.208Z,100.00
2022-09-06T23:30:11.947Z,100.00
2022-09-06T23:33:17.663Z,100.00
2022-09-06T23:36:24.036Z,100.00
2022-09-06T23:39:29.974Z,100.00
2022-09-06T23:42:36.008Z,100.00
2022-09-06T23:45:41.724Z,100.00
2022-09-06T23:48:47.590Z,100.00
2022-09-06T23:51:54.073Z,100.00
2022-09-06T23:54:59.740Z,100.00
2022-09-06T23:58:05.760Z,100.00
